Time;durP1;ratioP1;P1;durP2;ratioP2;P2;SDS_P1;SDS_P2;PMS_P1;PMS_P2;Temp;Humidity;BMP_temperature;BMP_pressure;BME280_temperature;BME280_humidity;BME280_pressure;Samples;Min_cycle;Max_cycle;Signal;HPM_P1;HPM_P2
2023/07/24 00:01:40;;;;;;;15.75;6.60;;;16.60;99.90;;;;;;4972469;28;20476;-74
2023/07/24 00:04:06;;;;;;;13.98;6.70;;;16.60;99.90;;;;;;4973075;28;23205;-73
2023/07/24 00:06:32;;;;;;;15.90;6.68;;;16.60;99.90;;;;;;4980989;28;20063;-73
2023/07/24 00:08:58;;;;;;;17.10;7.28;;;16.50;99.90;;;;;;4979609;28;255515;-73
2023/07/24 00:11:24;;;;;;;14.73;7.13;;;16.50;99.90;;;;;;4986032;28;20503;-74
2023/07/24 00:13:50;;;;;;;14.75;7.40;;;16.50;99.90;;;;;;4976428;28;270558;-73
2023/07/24 00:16:16;;;;;;;19.25;7.82;;;16.50;99.90;;;;;;4980975;28;20050;-73
2023/07/24 00:18:42;;;;;;;14.88;7.88;;;16.40;99.90;;;;;;4968125;28;147656;-73
2023/07/24 00:21:10;;;;;;;14.68;7.75;;;16.40;99.90;;;;;;4984299;28;20061;-74
2023/07/24 00:23:36;;;;;;;16.17;7.93;;;16.40;99.90;;;;;;4969225;28;201625;-73
2023/07/24 00:26:02;;;;;;;15.43;7.47;;;16.40;99.90;;;;;;4985415;28;20046;-73
2023/07/24 00:28:28;;;;;;;14.02;7.75;;;16.30;99.90;;;;;;4960944;28;31447;-73
2023/07/24 00:30:55;;;;;;;16.38;7.60;;;16.30;99.90;;;;;;4989503;28;20103;-73
2023/07/24 00:33:22;;;;;;;17.63;7.40;;;16.30;99.90;;;;;;4974630;28;67605;-74
2023/07/24 00:35:48;;;;;;;15.70;8.18;;;16.20;99.90;;;;;;4982314;28;20443;-75
2023/07/24 00:38:14;;;;;;;14.82;7.50;;;16.20;99.90;;;;;;4973955;28;29781;-74
2023/07/24 00:40:40;;;;;;;13.88;7.68;;;16.20;99.90;;;;;;4985268;28;20054;-74
2023/07/24 00:43:06;;;;;;;16.08;7.68;;;16.20;99.90;;;;;;4974300;28;89801;-74
2023/07/24 00:45:33;;;;;;;13.55;7.65;;;16.20;99.90;;;;;;4994961;28;20065;-74
2023/07/24 00:48:00;;;;;;;15.70;7.90;;;16.20;99.90;;;;;;4978990;28;57196;-74
2023/07/24 00:50:28;;;;;;;18.25;8.02;;;16.20;99.90;;;;;;4988471;28;20053;-74
2023/07/24 00:52:54;;;;;;;16.75;8.68;;;16.20;99.90;;;;;;4949616;28;125766;-74
2023/07/24 00:55:21;;;;;;;18.40;8.85;;;16.20;99.90;;;;;;4980030;28;20495;-74
2023/07/24 00:57:47;;;;;;;15.25;8.10;;;16.20;99.90;;;;;;4972218;28;68669;-73
2023/07/24 01:00:13;;;;;;;14.38;8.52;;;16.20;99.90;;;;;;4982618;28;20046;-74
2023/07/24 01:02:39;;;;;;;17.33;9.00;;;16.30;99.90;;;;;;4973156;28;185179;-74
2023/07/24 01:05:07;;;;;;;19.33;9.65;;;16.30;99.90;;;;;;4968117;28;20054;-74
2023/07/24 01:07:34;;;;;;;17.40;9.15;;;16.40;99.90;;;;;;4970701;28;159587;-74
2023/07/24 01:10:00;;;;;;;18.92;9.90;;;16.40;99.90;;;;;;4982436;28;20796;-73
2023/07/24 01:12:35;;;;;;;20.80;9.57;;;16.40;99.90;;;;;;4969219;28;148654;-73
2023/07/24 01:15:22;;;;;;;18.38;9.57;;;16.50;99.90;;;;;;4982442;28;20416;-73
2023/07/24 01:17:52;;;;;;;17.15;9.38;;;16.50;99.90;;;;;;4967194;28;150556;-75
2023/07/24 01:20:20;;;;;;;18.48;10.27;;;16.50;99.90;;;;;;4979984;28;20423;-74
2023/07/24 01:22:53;;;;;;;17.98;10.02;;;16.60;99.90;;;;;;4963622;28;252277;-74
2023/07/24 01:25:36;;;;;;;20.10;10.90;;;16.60;99.90;;;;;;4982450;28;20050;-73
2023/07/24 01:28:07;;;;;;;17.13;10.98;;;16.60;99.90;;;;;;4968482;28;184562;-73
2023/07/24 01:30:33;;;;;;;18.02;10.60;;;16.60;99.90;;;;;;4982385;28;20077;-73
2023/07/24 01:32:59;;;;;;;18.50;11.20;;;16.60;99.90;;;;;;4967308;28;195311;-74
2023/07/24 01:35:27;;;;;;;21.25;11.38;;;16.60;99.90;;;;;;4982990;28;20393;-73
2023/07/24 01:37:56;;;;;;;18.55;11.95;;;16.70;99.90;;;;;;4971941;28;247518;-75
2023/07/24 01:40:23;;;;;;;16.00;11.15;;;16.70;99.90;;;;;;4991551;28;20412;-73
2023/07/24 01:42:50;;;;;;;15.90;11.40;;;16.70;99.90;;;;;;4968548;28;267610;-74
2023/07/24 01:45:16;;;;;;;17.95;11.65;;;16.70;99.90;;;;;;4983543;28;20065;-73
2023/07/24 01:47:42;;;;;;;18.50;11.52;;;16.70;99.90;;;;;;4971147;28;290041;-74
2023/07/24 01:50:08;;;;;;;18.65;11.93;;;16.70;99.90;;;;;;4963852;28;20054;-73
2023/07/24 01:52:34;;;;;;;16.33;10.77;;;16.70;99.90;;;;;;4958714;28;137743;-73
2023/07/24 01:55:00;;;;;;;17.45;10.50;;;16.60;99.90;;;;;;4966238;28;20069;-73
2023/07/24 01:57:26;;;;;;;17.42;10.80;;;16.60;99.90;;;;;;4964896;28;220296;-73
2023/07/24 01:59:53;;;;;;;16.58;10.35;;;16.60;99.90;;;;;;4965369;28;20054;-73
2023/07/24 02:02:19;;;;;;;17.13;10.82;;;16.60;99.90;;;;;;4960646;28;20053;-74
2023/07/24 02:04:46;;;;;;;17.73;10.52;;;16.60;99.90;;;;;;4973214;28;20046;-73
2023/07/24 02:07:12;;;;;;;17.90;10.50;;;16.50;99.90;;;;;;4983555;28;253764;-73
2023/07/24 02:09:38;;;;;;;16.38;10.60;;;16.60;99.90;;;;;;4981052;28;20085;-73
2023/07/24 02:12:05;;;;;;;15.43;10.70;;;16.50;99.90;;;;;;4965443;28;266541;-74
2023/07/24 02:14:31;;;;;;;16.75;11.10;;;16.50;99.90;;;;;;4981968;28;20065;-73
2023/07/24 02:16:57;;;;;;;20.52;11.23;;;16.50;99.90;;;;;;4965282;28;252829;-74
2023/07/24 02:19:23;;;;;;;19.27;10.63;;;16.40;99.90;;;;;;4979077;28;20050;-74
2023/07/24 02:21:49;;;;;;;19.00;10.73;;;16.50;99.90;;;;;;4956897;28;252053;-75
2023/07/24 02:24:15;;;;;;;16.77;9.73;;;16.40;99.90;;;;;;4965468;28;20443;-74
2023/07/24 02:26:42;;;;;;;16.00;9.73;;;16.40;99.90;;;;;;4981582;28;20089;-74
2023/07/24 02:29:08;;;;;;;15.07;9.38;;;16.40;99.90;;;;;;4978033;28;271230;-74
2023/07/24 02:31:34;;;;;;;14.88;9.60;;;16.40;99.90;;;;;;4982585;28;20057;-73
2023/07/24 02:34:00;;;;;;;16.95;9.95;;;16.40;99.90;;;;;;4956587;28;278777;-74
2023/07/24 02:36:26;;;;;;;16.70;10.13;;;16.40;99.90;;;;;;4983809;28;20058;-74
2023/07/24 02:38:52;;;;;;;16.55;10.30;;;16.40;99.90;;;;;;4970098;28;64165;-74
2023/07/24 02:41:18;;;;;;;17.77;10.25;;;16.40;99.90;;;;;;4983780;28;20050;-74
2023/07/24 02:43:44;;;;;;;18.58;9.88;;;16.40;99.90;;;;;;4969469;28;140641;-74
2023/07/24 02:46:10;;;;;;;15.13;9.90;;;16.40;99.90;;;;;;4981552;28;20051;-74
2023/07/24 02:48:36;;;;;;;15.75;10.20;;;16.40;99.90;;;;;;4978620;28;252431;-72
2023/07/24 02:51:02;;;;;;;17.13;10.35;;;16.40;99.90;;;;;;4977767;28;20050;-73
2023/07/24 02:53:29;;;;;;;15.18;9.57;;;16.40;99.90;;;;;;4951355;28;220211;-72
2023/07/24 02:55:55;;;;;;;15.70;10.15;;;16.40;99.90;;;;;;4979333;28;20057;-74
2023/07/24 02:58:21;;;;;;;17.73;10.32;;;16.30;99.90;;;;;;4967340;28;169272;-73
2023/07/24 03:00:47;;;;;;;15.25;10.20;;;16.30;99.90;;;;;;4981016;28;20050;-73
2023/07/24 03:03:13;;;;;;;16.33;10.23;;;16.30;99.90;;;;;;4967443;28;168710;-73
2023/07/24 03:05:39;;;;;;;17.90;10.85;;;16.30;99.90;;;;;;4979733;28;20053;-74
2023/07/24 03:08:05;;;;;;;17.65;10.23;;;16.30;99.90;;;;;;4965847;28;222835;-72
2023/07/24 03:10:31;;;;;;;17.80;10.85;;;16.30;99.90;;;;;;4976307;28;20061;-72
2023/07/24 03:12:57;;;;;;;15.48;10.25;;;16.30;99.90;;;;;;4975592;28;35170;-73
2023/07/24 03:15:23;;;;;;;15.10;10.30;;;16.30;99.90;;;;;;4983209;28;20069;-74
2023/07/24 03:17:49;;;;;;;16.58;10.50;;;16.30;99.90;;;;;;4972485;28;274843;-73
2023/07/24 03:20:18;;;;;;;16.85;10.60;;;16.30;99.90;;;;;;4967033;28;20046;-73
2023/07/24 03:22:44;;;;;;;16.92;10.98;;;16.30;99.90;;;;;;4972527;28;28098;-73
2023/07/24 03:25:10;;;;;;;17.55;11.48;;;16.30;99.90;;;;;;4993553;28;20039;-74
2023/07/24 03:27:37;;;;;;;17.98;10.90;;;16.30;99.90;;;;;;4964362;28;269427;-73
2023/07/24 03:30:03;;;;;;;18.48;11.23;;;16.30;99.90;;;;;;4981947;28;20054;-73
2023/07/24 03:32:30;;;;;;;16.90;11.27;;;16.30;99.90;;;;;;4972638;28;111083;-73
2023/07/24 03:34:56;;;;;;;16.02;10.68;;;16.40;99.90;;;;;;4989610;28;20062;-73
2023/07/24 03:37:22;;;;;;;15.32;10.82;;;16.40;99.90;;;;;;4956091;28;99458;-72
2023/07/24 03:39:48;;;;;;;18.08;11.63;;;16.40;99.90;;;;;;4977718;28;20062;-73
2023/07/24 03:42:28;;;;;;;16.65;11.15;;;16.40;99.90;;;;;;4965360;28;219925;-74
2023/07/24 03:44:55;;;;;;;15.85;10.63;;;16.50;99.90;;;;;;4977358;28;20050;-73
2023/07/24 03:47:21;;;;;;;16.08;10.85;;;16.50;99.90;;;;;;4947034;28;247879;-74
2023/07/24 03:49:47;;;;;;;17.40;10.68;;;16.50;99.90;;;;;;4968513;28;20081;-73
2023/07/24 03:52:14;;;;;;;16.38;11.25;;;16.50;99.90;;;;;;4959472;28;254152;-73
2023/07/24 03:54:40;;;;;;;16.40;11.35;;;16.50;99.90;;;;;;4976230;28;20062;-73
2023/07/24 03:57:06;;;;;;;15.25;10.88;;;16.50;99.90;;;;;;4966911;28;271848;-73
2023/07/24 03:59:32;;;;;;;16.25;10.20;;;16.60;99.90;;;;;;4986846;28;20046;-72
2023/07/24 04:01:58;;;;;;;16.65;10.23;;;16.60;99.90;;;;;;4967888;28;257760;-73
2023/07/24 04:04:24;;;;;;;14.40;10.13;;;16.60;99.90;;;;;;4984534;28;20054;-73
2023/07/24 04:06:50;;;;;;;15.57;10.32;;;16.60;99.90;;;;;;4965372;28;264346;-74
2023/07/24 04:09:17;;;;;;;13.77;9.82;;;16.60;99.90;;;;;;4985242;28;20549;-72
2023/07/24 04:11:44;;;;;;;16.05;10.27;;;16.60;99.90;;;;;;4983816;28;20083;-73
2023/07/24 04:14:10;;;;;;;14.50;10.13;;;16.60;99.90;;;;;;4969167;28;241212;-74
2023/07/24 04:16:37;;;;;;;15.93;10.40;;;16.60;99.90;;;;;;4981128;28;20053;-73
2023/07/24 04:19:03;;;;;;;15.50;9.88;;;16.60;99.90;;;;;;4971217;28;157613;-73
2023/07/24 04:21:29;;;;;;;14.63;10.15;;;16.60;99.90;;;;;;4987965;28;20058;-73
2023/07/24 04:23:55;;;;;;;16.40;9.98;;;16.60;99.90;;;;;;4974414;28;68170;-74
2023/07/24 04:26:21;;;;;;;17.85;10.10;;;16.50;99.90;;;;;;4985049;28;20400;-74
2023/07/24 04:28:48;;;;;;;16.67;9.63;;;16.50;99.90;;;;;;4982865;28;20057;-74
2023/07/24 04:31:14;;;;;;;14.10;9.57;;;16.50;99.90;;;;;;4988069;28;20050;-73
2023/07/24 04:33:40;;;;;;;17.83;10.15;;;16.50;99.90;;;;;;4966935;28;228820;-73
2023/07/24 04:36:06;;;;;;;14.65;9.75;;;16.50;99.90;;;;;;4985946;28;20045;-73
2023/07/24 04:38:32;;;;;;;14.60;9.68;;;16.50;99.90;;;;;;4983380;28;256051;-73
2023/07/24 04:41:01;;;;;;;15.55;9.52;;;16.60;99.90;;;;;;4988488;28;20051;-73
2023/07/24 04:43:27;;;;;;;14.95;10.13;;;16.50;99.90;;;;;;4973410;28;172295;-73
2023/07/24 04:45:53;;;;;;;13.73;9.55;;;16.50;99.90;;;;;;4989992;28;20537;-73
2023/07/24 04:48:19;;;;;;;14.77;9.52;;;16.60;99.90;;;;;;4972713;28;106782;-73
2023/07/24 04:50:45;;;;;;;15.02;9.48;;;16.50;99.90;;;;;;4983008;28;20621;-73
2023/07/24 04:53:11;;;;;;;15.82;9.90;;;16.50;99.90;;;;;;4946166;28;190313;-73
2023/07/24 04:55:38;;;;;;;15.85;9.40;;;16.60;99.90;;;;;;4980790;28;20042;-73
2023/07/24 04:58:04;;;;;;;17.23;10.25;;;16.50;99.90;;;;;;4977841;28;262255;-73
2023/07/24 05:00:30;;;;;;;14.85;9.90;;;16.60;99.90;;;;;;4984320;28;20047;-73
2023/07/24 05:02:56;;;;;;;13.27;9.15;;;16.60;99.90;;;;;;4952209;28;239058;-73
2023/07/24 05:05:22;;;;;;;14.60;9.38;;;16.60;99.90;;;;;;4982271;28;20447;-73
2023/07/24 05:07:48;;;;;;;17.15;9.48;;;16.70;99.90;;;;;;4971755;28;187812;-74
2023/07/24 05:10:14;;;;;;;17.00;9.70;;;16.70;99.90;;;;;;4989661;28;20444;-74
2023/07/24 05:12:42;;;;;;;16.13;9.90;;;16.70;99.90;;;;;;4971260;28;224858;-73
2023/07/24 05:15:08;;;;;;;15.30;9.60;;;16.70;99.90;;;;;;4990738;28;20050;-74
2023/07/24 05:17:35;;;;;;;14.65;9.48;;;16.70;99.90;;;;;;4970961;28;253785;-74
2023/07/24 05:20:01;;;;;;;14.38;9.80;;;16.70;99.90;;;;;;4986867;28;20077;-74
2023/07/24 05:22:27;;;;;;;17.15;10.45;;;16.70;99.90;;;;;;4975048;28;37188;-74
2023/07/24 05:24:53;;;;;;;17.30;9.77;;;16.80;99.90;;;;;;4997227;28;20057;-74
2023/07/24 05:27:19;;;;;;;14.73;10.40;;;16.90;99.90;;;;;;4970638;28;269566;-74
2023/07/24 05:29:45;;;;;;;15.02;10.82;;;16.90;99.90;;;;;;4990849;28;20050;-74
2023/07/24 05:32:11;;;;;;;16.65;10.13;;;16.90;99.90;;;;;;4970606;28;267895;-73
2023/07/24 05:34:37;;;;;;;14.80;10.05;;;17.00;99.90;;;;;;4980395;28;20754;-73
2023/07/24 05:37:05;;;;;;;14.57;9.90;;;17.00;99.90;;;;;;4972252;28;267929;-73
2023/07/24 05:39:31;;;;;;;15.55;9.80;;;17.00;99.90;;;;;;4987950;28;20062;-74
2023/07/24 05:41:57;;;;;;;15.45;10.05;;;17.10;99.90;;;;;;4946943;28;268099;-73
2023/07/24 05:44:23;;;;;;;14.13;9.38;;;17.10;99.90;;;;;;5001928;28;20054;-73
2023/07/24 05:46:50;;;;;;;18.60;10.85;;;17.10;99.90;;;;;;4974956;28;258015;-73
2023/07/24 05:49:16;;;;;;;15.05;9.75;;;17.20;99.90;;;;;;4986768;28;20058;-73
2023/07/24 05:51:42;;;;;;;16.05;10.57;;;17.20;99.90;;;;;;4984270;28;20072;-73
2023/07/24 05:54:08;;;;;;;16.25;10.77;;;17.20;99.90;;;;;;4970079;28;267986;-74
2023/07/24 05:56:34;;;;;;;14.70;9.65;;;17.20;99.90;;;;;;4976641;28;20069;-72
2023/07/24 05:59:00;;;;;;;15.80;9.85;;;17.20;99.90;;;;;;4955857;28;102842;-73
2023/07/24 06:01:26;;;;;;;14.00;9.70;;;17.20;99.90;;;;;;4969055;28;20050;-73
2023/07/24 06:03:52;;;;;;;19.88;9.50;;;17.20;99.90;;;;;;4972780;28;135765;-73
2023/07/24 06:06:19;;;;;;;15.10;9.27;;;17.20;99.90;;;;;;4968920;28;20582;-72
2023/07/24 06:08:47;;;;;;;16.08;9.43;;;17.20;99.90;;;;;;4972204;28;132026;-72
2023/07/24 06:11:13;;;;;;;18.92;9.57;;;17.30;99.90;;;;;;4984754;28;20054;-72
2023/07/24 06:13:39;;;;;;;14.85;9.35;;;17.30;99.90;;;;;;4978614;28;264767;-72
2023/07/24 06:16:07;;;;;;;17.13;9.13;;;17.30;99.90;;;;;;4970497;28;20054;-71
2023/07/24 06:18:34;;;;;;;15.23;8.85;;;17.40;99.90;;;;;;4971615;28;191904;-72
2023/07/24 06:21:00;;;;;;;20.65;9.10;;;17.50;99.90;;;;;;4981174;28;20047;-72
2023/07/24 06:23:26;;;;;;;19.02;9.43;;;17.60;99.90;;;;;;4971336;28;119302;-71
2023/07/24 06:25:52;;;;;;;18.55;9.07;;;17.60;99.90;;;;;;4986318;28;20073;-71
2023/07/24 06:28:19;;;;;;;14.02;9.10;;;17.70;99.90;;;;;;4969213;28;234357;-72
2023/07/24 06:30:45;;;;;;;14.45;9.13;;;17.70;99.90;;;;;;4971276;28;20077;-73
2023/07/24 06:33:11;;;;;;;15.52;8.93;;;17.80;99.90;;;;;;4976882;28;61638;-71
2023/07/24 06:35:37;;;;;;;16.67;9.13;;;17.80;99.90;;;;;;4988096;28;20058;-72
2023/07/24 06:38:03;;;;;;;15.85;8.90;;;17.80;99.90;;;;;;4976157;28;102130;-73
2023/07/24 06:40:29;;;;;;;14.70;8.55;;;17.80;99.90;;;;;;4987073;28;20073;-72
2023/07/24 06:42:55;;;;;;;14.40;8.88;;;17.80;99.90;;;;;;4957286;28;191784;-72
2023/07/24 06:45:22;;;;;;;17.17;9.30;;;17.80;99.90;;;;;;4990098;28;20058;-72
2023/07/24 06:47:48;;;;;;;15.40;8.98;;;17.90;99.90;;;;;;4976698;28;259228;-72
2023/07/24 06:50:14;;;;;;;17.52;9.40;;;17.90;99.90;;;;;;4987052;28;20080;-72
2023/07/24 06:52:40;;;;;;;15.75;9.00;;;18.00;99.90;;;;;;4964640;28;65980;-72
2023/07/24 06:55:06;;;;;;;15.95;9.05;;;18.00;99.90;;;;;;5003089;28;20163;-73
2023/07/24 06:57:32;;;;;;;16.40;8.40;;;18.20;99.90;;;;;;4968008;28;237699;-72
2023/07/24 06:59:58;;;;;;;15.65;8.80;;;18.20;99.90;;;;;;4992933;28;20054;-73
2023/07/24 07:02:24;;;;;;;16.35;8.32;;;18.30;99.90;;;;;;4973501;28;251707;-71
2023/07/24 07:04:51;;;;;;;17.85;8.90;;;18.40;99.90;;;;;;4991659;28;20062;-72
2023/07/24 07:07:17;;;;;;;16.95;8.73;;;18.50;99.90;;;;;;4971547;28;274444;-71
2023/07/24 07:09:43;;;;;;;15.48;8.23;;;18.60;99.90;;;;;;4998958;28;20533;-72
2023/07/24 07:12:09;;;;;;;16.65;8.38;;;18.60;99.90;;;;;;4964041;28;254674;-72
2023/07/24 07:14:35;;;;;;;14.68;8.18;;;18.70;99.90;;;;;;4996589;28;20058;-72
2023/07/24 07:17:01;;;;;;;15.80;8.50;;;18.70;99.90;;;;;;4967508;28;261215;-72
2023/07/24 07:19:27;;;;;;;19.05;8.85;;;18.80;99.90;;;;;;4999858;28;20042;-72
2023/07/24 07:21:54;;;;;;;20.20;9.02;;;18.90;99.90;;;;;;4968472;28;261022;-71
2023/07/24 07:24:20;;;;;;;16.30;8.13;;;18.90;99.90;;;;;;5003746;28;20042;-72
2023/07/24 07:26:46;;;;;;;17.20;8.25;;;19.00;99.90;;;;;;4985966;28;20061;-72
2023/07/24 07:29:12;;;;;;;16.58;7.97;;;19.10;99.90;;;;;;4958165;28;183459;-71
2023/07/24 07:31:38;;;;;;;18.42;7.93;;;19.20;99.90;;;;;;4989171;28;20526;-72
2023/07/24 07:34:04;;;;;;;15.10;7.85;;;19.20;99.90;;;;;;4976657;28;257031;-72
2023/07/24 07:36:30;;;;;;;16.20;7.93;;;19.20;99.90;;;;;;4983926;28;20051;-73
2023/07/24 07:38:56;;;;;;;16.20;7.22;;;19.20;99.90;;;;;;4986525;28;257483;-72
2023/07/24 07:41:22;;;;;;;14.55;7.15;;;19.20;99.90;;;;;;4985810;28;20062;-73
2023/07/24 07:43:48;;;;;;;16.30;7.50;;;19.20;99.90;;;;;;4977227;28;191333;-72
2023/07/24 07:46:14;;;;;;;15.60;7.95;;;19.20;99.90;;;;;;4986662;28;20265;-73
2023/07/24 07:48:40;;;;;;;15.50;7.43;;;19.20;99.90;;;;;;4973434;28;230079;-73
2023/07/24 07:51:07;;;;;;;15.32;8.07;;;19.30;99.90;;;;;;4987278;28;20054;-73
2023/07/24 07:53:33;;;;;;;17.05;7.15;;;19.30;99.90;;;;;;4962330;28;206585;-73
2023/07/24 07:55:59;;;;;;;16.10;7.68;;;19.30;99.90;;;;;;4990692;28;20046;-73
2023/07/24 07:58:25;;;;;;;14.40;7.15;;;19.30;99.90;;;;;;4987857;28;277726;-73
2023/07/24 08:00:52;;;;;;;14.60;7.38;;;19.30;99.90;;;;;;4988215;28;20050;-73
2023/07/24 08:03:18;;;;;;;18.63;7.80;;;19.30;99.90;;;;;;4980185;28;75760;-73
2023/07/24 08:05:44;;;;;;;17.35;7.72;;;19.30;99.90;;;;;;4972301;28;20054;-72
2023/07/24 08:08:10;;;;;;;16.88;8.15;;;19.30;99.90;;;;;;4974165;28;254412;-73
2023/07/24 08:10:40;;;;;;;14.82;7.85;;;19.30;99.90;;;;;;4993286;28;20054;-72
2023/07/24 08:13:09;;;;;;;19.60;7.78;;;19.40;99.90;;;;;;4979473;28;104057;-72
2023/07/24 08:15:36;;;;;;;15.55;7.68;;;19.50;99.90;;;;;;4991534;28;20066;-72
2023/07/24 08:18:04;;;;;;;15.68;7.90;;;19.60;99.90;;;;;;4983547;28;235464;-71
2023/07/24 08:20:31;;;;;;;15.40;8.00;;;19.60;99.90;;;;;;4988526;28;20054;-72
2023/07/24 08:22:57;;;;;;;16.58;7.40;;;19.60;99.90;;;;;;4986947;28;58041;-72
2023/07/24 08:25:23;;;;;;;18.00;7.43;;;19.50;99.90;;;;;;4985875;28;20736;-71
2023/07/24 08:27:49;;;;;;;15.63;7.82;;;19.50;99.90;;;;;;4974921;28;143814;-72
2023/07/24 08:30:15;;;;;;;15.85;6.70;;;19.40;99.90;;;;;;4982588;28;20084;-71
2023/07/24 08:32:41;;;;;;;14.43;7.43;;;19.30;99.90;;;;;;4994156;28;20061;-72
2023/07/24 08:35:07;;;;;;;18.45;7.30;;;19.30;99.90;;;;;;4993472;28;20480;-71
2023/07/24 08:37:33;;;;;;;15.45;7.20;;;19.40;99.90;;;;;;4980760;28;71474;-69
2023/07/24 08:39:59;;;;;;;17.17;7.88;;;19.40;99.90;;;;;;4995017;28;20047;-73
2023/07/24 08:42:26;;;;;;;15.13;6.85;;;19.40;99.90;;;;;;4975910;28;242948;-72
2023/07/24 08:44:54;;;;;;;13.65;6.82;;;19.60;99.90;;;;;;4993747;28;20054;-73
2023/07/24 08:47:21;;;;;;;17.20;7.55;;;19.60;99.90;;;;;;4970966;28;279317;-74
2023/07/24 08:49:47;;;;;;;16.08;6.80;;;19.80;99.90;;;;;;4983350;28;20123;-73
2023/07/24 08:52:14;;;;;;;16.90;7.00;;;20.00;99.90;;;;;;4963242;28;104620;-74
2023/07/24 08:54:40;;;;;;;16.05;7.35;;;20.00;99.90;;;;;;4985753;28;20062;-74
2023/07/24 08:57:07;;;;;;;22.13;6.85;;;20.10;99.90;;;;;;4962680;28;266771;-72
2023/07/24 08:59:34;;;;;;;14.93;6.88;;;20.30;99.90;;;;;;4980156;28;20062;-75
2023/07/24 09:02:01;;;;;;;16.27;6.50;;;20.50;99.90;;;;;;4964962;28;257547;-72
2023/07/24 09:04:27;;;;;;;18.85;7.25;;;20.60;99.90;;;;;;4980649;28;20053;-71
2023/07/24 09:06:56;;;;;;;17.13;6.18;;;20.90;99.90;;;;;;4977414;28;255911;-74
2023/07/24 09:09:22;;;;;;;12.00;6.43;;;21.10;99.90;;;;;;4986452;28;20042;-74
2023/07/24 09:11:53;;;;;;;13.98;5.65;;;21.10;99.90;;;;;;4987513;28;20054;-73
2023/07/24 09:14:32;;;;;;;16.83;6.55;;;20.80;99.90;;;;;;4976952;28;20057;-73
2023/07/24 09:17:05;;;;;;;15.90;6.00;;;20.70;99.90;;;;;;4970368;28;273552;-72
2023/07/24 09:19:31;;;;;;;16.02;6.20;;;20.50;99.90;;;;;;4998368;28;20054;-73
2023/07/24 09:22:08;;;;;;;16.15;6.18;;;20.70;99.90;;;;;;4967421;28;263095;-73
2023/07/24 09:24:35;;;;;;;13.30;5.78;;;21.70;99.90;;;;;;4983569;28;20500;-73
2023/07/24 09:27:06;;;;;;;15.63;5.90;;;22.70;99.90;;;;;;4967819;28;250805;-73
2023/07/24 09:29:32;;;;;;;;;;;23.20;99.90;;;;;;5001405;28;20058;-74
2023/07/24 09:31:59;;;;;;;15.02;4.95;;;23.50;99.90;;;;;;4966093;28;257260;-74
2023/07/24 09:34:25;;;;;;;11.13;4.70;;;23.80;99.90;;;;;;4995973;28;20050;-72
2023/07/24 09:36:52;;;;;;;12.40;5.35;;;24.00;99.90;;;;;;4965008;28;259744;-73
2023/07/24 09:39:27;;;;;;;11.55;4.97;;;24.00;99.90;;;;;;4983929;28;20065;-72
2023/07/24 09:42:02;;;;;;;14.25;5.03;;;23.40;99.90;;;;;;4967761;28;267743;-71
2023/07/24 09:44:30;;;;;;;14.23;4.97;;;22.80;99.90;;;;;;4987158;28;20046;-72
2023/07/24 09:46:56;;;;;;;12.77;4.93;;;22.60;99.90;;;;;;4966475;28;271571;-72
2023/07/24 09:49:22;;;;;;;14.15;5.00;;;22.60;99.90;;;;;;5001626;28;20410;-72
2023/07/24 09:51:52;;;;;;;12.50;4.82;;;22.60;99.90;;;;;;4980647;28;20074;-71
2023/07/24 09:54:48;;;;;;;13.65;4.85;;;23.10;99.90;;;;;;4952846;28;127256;-72
2023/07/24 09:57:14;;;;;;;13.85;4.70;;;23.50;99.90;;;;;;4965324;28;261299;-72
2023/07/24 09:59:41;;;;;;;12.80;4.40;;;24.10;99.90;;;;;;4982997;28;20365;-73
2023/07/24 10:02:11;;;;;;;10.18;4.63;;;24.10;99.90;;;;;;4963660;28;250603;-73
2023/07/24 10:04:37;;;;;;;12.27;5.13;;;24.10;99.90;;;;;;4980721;28;20054;-69
2023/07/24 10:07:05;;;;;;;11.50;5.03;;;23.60;99.90;;;;;;4966963;28;264454;-70
2023/07/24 10:09:33;;;;;;;14.75;5.38;;;23.30;99.90;;;;;;4981925;28;20057;-70
2023/07/24 10:12:01;;;;;;;11.73;4.63;;;23.90;99.90;;;;;;4966861;28;256431;-71
2023/07/24 10:14:29;;;;;;;13.57;4.45;;;24.40;99.90;;;;;;4970070;28;20042;-71
2023/07/24 10:16:56;;;;;;;12.32;4.53;;;24.80;99.90;;;;;;4960613;28;270395;-72
2023/07/24 10:19:22;;;;;;;12.95;4.60;;;25.10;99.90;;;;;;4998927;28;20415;-71
2023/07/24 10:21:51;;;;;;;13.35;4.50;;;24.70;99.80;;;;;;4972942;28;256893;-68
2023/07/24 10:24:17;;;;;;;12.05;4.90;;;23.90;99.90;;;;;;4977834;28;20499;-71
2023/07/24 10:26:43;;;;;;;12.43;4.70;;;24.70;99.90;;;;;;4983988;28;20054;-72
2023/07/24 10:29:10;;;;;;;12.52;4.68;;;24.70;99.90;;;;;;4976019;28;150224;-71
2023/07/24 10:31:36;;;;;;;12.05;4.38;;;25.30;99.90;;;;;;4981857;28;20514;-72
2023/07/24 10:34:06;;;;;;;16.58;5.45;;;25.40;99.80;;;;;;4981129;28;269575;-70
2023/07/24 10:36:34;;;;;;;11.32;4.10;;;24.60;99.70;;;;;;4984873;28;20059;-71
2023/07/24 10:39:02;;;;;;;12.70;4.32;;;24.50;99.90;;;;;;4979059;28;272030;-76
2023/07/24 10:41:35;;;;;;;11.85;3.78;;;24.80;99.90;;;;;;4983618;28;20057;-72
2023/07/24 10:44:02;;;;;;;10.85;4.15;;;24.80;98.70;;;;;;4983718;28;277720;-73
2023/07/24 10:46:44;;;;;;;11.85;4.25;;;24.30;99.50;;;;;;4968877;28;20507;-70
2023/07/24 10:49:11;;;;;;;15.80;4.57;;;23.70;99.90;;;;;;4982149;28;257488;-71
2023/07/24 10:51:37;;;;;;;12.68;4.55;;;23.50;99.90;;;;;;4968931;28;20069;-71
2023/07/24 10:54:04;;;;;;;10.20;4.13;;;23.30;99.90;;;;;;4948857;28;147245;-73
2023/07/24 10:56:30;;;;;;;12.73;4.15;;;23.20;99.90;;;;;;4983371;28;20084;-71
2023/07/24 10:59:01;;;;;;;12.43;4.05;;;23.40;99.90;;;;;;4956220;28;77914;-71
2023/07/24 11:01:28;;;;;;;12.10;4.45;;;23.50;99.90;;;;;;4978772;28;20062;-73
2023/07/24 11:03:54;;;;;;;13.38;4.25;;;23.20;99.90;;;;;;4976994;28;255710;-72
2023/07/24 11:06:22;;;;;;;12.48;3.83;;;23.10;99.90;;;;;;4984805;28;20058;-73
2023/07/24 11:08:53;;;;;;;13.40;4.47;;;23.00;99.90;;;;;;4979617;28;257470;-72
2023/07/24 11:11:19;;;;;;;11.52;4.13;;;22.90;99.90;;;;;;4983430;28;20120;-72
2023/07/24 11:13:45;;;;;;;10.63;4.25;;;22.80;99.90;;;;;;4977254;28;265873;-70
2023/07/24 11:16:11;;;;;;;17.20;4.20;;;22.80;99.90;;;;;;4982134;28;20062;-71
2023/07/24 11:18:51;;;;;;;10.35;3.85;;;22.80;99.90;;;;;;4975245;28;262684;-70
2023/07/24 11:21:18;;;;;;;12.25;3.95;;;23.20;99.90;;;;;;4988959;28;20038;-70
2023/07/24 11:23:51;;;;;;;12.40;3.75;;;23.50;99.90;;;;;;4975824;28;267195;-72
2023/07/24 11:26:22;;;;;;;11.95;4.28;;;23.60;99.90;;;;;;4983986;28;20526;-70
2023/07/24 11:28:49;;;;;;;;;;;23.40;99.90;;;;;;4981701;28;270344;-70
2023/07/24 11:31:15;;;;;;;10.60;4.00;;;23.30;99.90;;;;;;4997744;28;20394;-71
2023/07/24 11:33:43;;;;;;;13.95;3.97;;;23.30;99.90;;;;;;4967854;28;219175;-72
2023/07/24 11:36:10;;;;;;;12.95;4.65;;;23.10;99.90;;;;;;4983511;28;20059;-71
2023/07/24 11:38:38;;;;;;;11.88;4.68;;;22.90;99.90;;;;;;4970944;28;257506;-69
2023/07/24 11:41:04;;;;;;;12.80;4.75;;;23.20;99.90;;;;;;4981816;28;20070;-72
2023/07/24 11:43:31;;;;;;;12.75;4.70;;;23.30;99.90;;;;;;4962545;28;246090;-72
2023/07/24 11:45:57;;;;;;;11.23;4.20;;;23.80;99.90;;;;;;4975432;28;20514;-72
2023/07/24 11:48:24;;;;;;;12.65;4.68;;;24.00;99.90;;;;;;4974685;28;266748;-71
2023/07/24 11:50:53;;;;;;;13.02;4.57;;;23.90;99.90;;;;;;4983815;28;20054;-68
2023/07/24 11:53:29;;;;;;;12.98;5.00;;;23.90;99.90;;;;;;4959512;28;273516;-72
2023/07/24 11:55:58;;;;;;;14.25;5.00;;;23.50;99.90;;;;;;4980330;28;20515;-72
2023/07/24 11:58:29;;;;;;;11.63;4.60;;;23.20;99.90;;;;;;4975964;28;267132;-72
2023/07/24 12:00:56;;;;;;;13.27;4.57;;;23.20;99.90;;;;;;4982981;28;20038;-72
2023/07/24 12:03:25;;;;;;;12.63;4.45;;;23.10;99.90;;;;;;4959320;28;60443;-70
2023/07/24 12:05:52;;;;;;;14.43;4.25;;;23.40;99.90;;;;;;4982203;28;20046;-71
2023/07/24 12:08:30;;;;;;;14.02;4.53;;;24.00;99.90;;;;;;4970182;28;262409;-71
2023/07/24 12:10:57;;;;;;;13.35;4.35;;;24.60;99.90;;;;;;4986218;28;20057;-71
2023/07/24 12:13:23;;;;;;;14.32;4.05;;;24.40;99.40;;;;;;4958965;28;105806;-71
2023/07/24 12:15:49;;;;;;;13.27;4.40;;;24.30;99.00;;;;;;4983826;28;20069;-71
2023/07/24 12:18:16;;;;;;;11.52;4.10;;;24.40;99.70;;;;;;4976355;28;258439;-71
2023/07/24 12:20:42;;;;;;;12.90;4.65;;;24.30;99.70;;;;;;4989895;28;20407;-71
2023/07/24 12:23:08;;;;;;;13.05;4.53;;;24.10;99.20;;;;;;4977936;28;263931;-72
2023/07/24 12:25:34;;;;;;;15.65;4.40;;;24.30;99.90;;;;;;4992229;28;20046;-71
2023/07/24 12:28:00;;;;;;;11.15;4.05;;;24.90;99.90;;;;;;4973612;28;124313;-72
2023/07/24 12:30:26;;;;;;;12.10;3.88;;;25.50;99.00;;;;;;4989760;28;20487;-72